Chopin — ZDFE4 — position and weather

sailwx.info

Track history (hours):
 
Tides and Currents Weather Stations Pressure Air Temp Water Temp Dewpoint Dewpoint Depression Visibility Wind Speed Wind Dir Waves Ship Positions

Chopin

Last reported at 2014-Oct-30 01:33 UTC. Time now 2014-Oct-31 14:12 UTC.
Position N 58°41' W 002°41'.

Length 104 m; draft 6 m.

Type: Cargo ship. MMSI: 236099000.

Date/timePositionNaut miles runAvg speedWind from/ knotsBaromVisibWave heightAir tempDewpointWater temp
2014-Oct-30 01:33N 58°41' W 002°41'1212.5
2014-Oct-30 00:33N 58°43' W 003°04'1212.4
2014-Oct-29 23:33N 58°42' W 003°28'1111.0
2014-Oct-29 22:33N 58°42' W 003°49'48 9.3
2014-Oct-29 17:23N 58°32' W 005°20'8 9.4
2014-Oct-29 16:33N 58°25' W 005°27'10 9.8
2014-Oct-29 15:33N 58°17' W 005°37'1010.0
2014-Oct-29 14:34N 58°08' W 005°47'142 8.7
2014-Oct-28 22:12N 55°49' W 006°34'5 7.3
2014-Oct-28 21:33N 55°45' W 006°34'5 5.2
2014-Oct-28 20:33N 55°39' W 006°34'8 7.8
2014-Oct-28 19:34N 55°33' W 006°25'10 9.7
2014-Oct-28 18:33N 55°26' W 006°13'1010.1
2014-Oct-28 17:33N 55°22' W 005°58'1312.6
2014-Oct-28 16:34N 55°10' W 005°48'1111.1
2014-Oct-28 15:32N 54°59' W 005°42'1010.4
2014-Oct-28 14:34N 54°49' W 005°39'9 9.0
2014-Oct-28 13:34N 54°41' W 005°46'6 5.2
2014-Oct-28 12:19N 54°37' W 005°54'0 0.0
2014-Oct-28 11:31N 54°37' W 005°54'0 0.0
2014-Oct-28 10:31N 54°37' W 005°54'0 0.0
2014-Oct-28 09:28N 54°37' W 005°54'0 0.0
2014-Oct-28 08:31N 54°37' W 005°54'0 0.0
2014-Oct-28 07:28N 54°37' W 005°54'0 0.0
2014-Oct-28 06:31N 54°37' W 005°54'0 0.0
2014-Oct-28 05:30N 54°37' W 005°54'0 0.0
2014-Oct-28 04:24N 54°37' W 005°54'0 0.0
2014-Oct-28 03:30N 54°37' W 005°54'0 0.0
2014-Oct-28 02:30N 54°37' W 005°54'0 0.0
2014-Oct-28 01:27N 54°37' W 005°54'0 0.0
2014-Oct-28 00:33N 54°37' W 005°54'0 0.0
2014-Oct-27 23:30N 54°37' W 005°54'0 0.0
2014-Oct-27 22:21N 54°37' W 005°54'0 0.0
2014-Oct-27 21:33N 54°37' W 005°54'0 0.0
2014-Oct-27 19:30N 54°37' W 005°54'0 0.0
2014-Oct-27 18:33N 54°37' W 005°54'0 0.0
2014-Oct-27 17:27N 54°37' W 005°54'0 0.0
2014-Oct-27 16:15N 54°37' W 005°54'0 0.0
2014-Oct-27 15:27N 54°37' W 005°54'0 0.0
2014-Oct-27 14:33N 54°37' W 005°54'0 0.0
2014-Oct-27 13:21N 54°37' W 005°54'0 0.0
2014-Oct-27 12:21N 54°37' W 005°54'0 0.0
2014-Oct-27 11:33N 54°37' W 005°54'0 0.0
2014-Oct-27 10:31N 54°37' W 005°54'0 0.0
2014-Oct-27 09:33N 54°37' W 005°54'3 3.1
2014-Oct-27 08:33N 54°39' W 005°51'9 8.9
2014-Oct-27 07:33N 54°43' W 005°37'6 6.2
2014-Oct-27 06:33N 54°40' W 005°27'7 7.1
2014-Oct-27 05:34N 54°33' W 005°24'8 7.5
2014-Oct-27 04:33N 54°26' W 005°20'7 7.1
2014-Oct-27 03:33N 54°19' W 005°20'192 6.9
2014-Oct-25 23:34N 51°22' W 003°14'1111.3
2014-Oct-25 22:34N 51°27' W 002°58'10 9.7
2014-Oct-25 21:31N 51°30' W 002°43'0 0.4
2014-Oct-25 20:31N 51°31' W 002°42'0 0.0
2014-Oct-25 19:31N 51°31' W 002°42'0 0.0
2014-Oct-25 18:31N 51°31' W 002°42'0 0.0
2014-Oct-25 17:34N 51°31' W 002°42'0 0.0
2014-Oct-25 16:33N 51°31' W 002°42'0 0.0
2014-Oct-25 15:33N 51°31' W 002°42'0 0.0
2014-Oct-25 14:33N 51°31' W 002°42'0 0.0
2014-Oct-25 13:33N 51°31' W 002°42'0 0.0
2014-Oct-25 12:33N 51°31' W 002°42'0 0.0
2014-Oct-25 11:33N 51°31' W 002°42'0 0.0
2014-Oct-25 10:30N 51°31' W 002°42'0 0.0
2014-Oct-25 09:33N 51°31' W 002°42'0 0.0
2014-Oct-25 08:33N 51°31' W 002°42'0 0.0
2014-Oct-25 07:30N 51°31' W 002°42'0 0.1
2014-Oct-25 06:33N 51°30' W 002°42'1 0.7
2014-Oct-25 05:33N 51°31' W 002°43'1211.9
2014-Oct-25 04:33N 51°26' W 003°01'1212.0
2014-Oct-25 03:34N 51°21' W 003°18'193 6.4
2014-Oct-23 21:34N 54°20' W 005°19'1010.0
2014-Oct-23 20:34N 54°30' W 005°21'1211.9
2014-Oct-23 19:34N 54°41' W 005°27'1010.1
2014-Oct-23 18:34N 54°42' W 005°45'7 1.7
2014-Oct-23 14:29N 54°37' W 005°54'0 0.0
2014-Oct-23 13:05N 54°37' W 005°54'0 0.0
2014-Oct-23 11:29N 54°37' W 005°54'0 0.0
2014-Oct-23 10:29N 54°37' W 005°54'0 0.0
2014-Oct-23 09:26N 54°37' W 005°54'0 0.0
2014-Oct-23 08:20N 54°37' W 005°54'0 0.0
2014-Oct-23 07:31N 54°37' W 005°54'0 0.0
2014-Oct-23 06:25N 54°37' W 005°54'0 0.0
2014-Oct-23 03:27N 54°37' W 005°54'0 0.0
2014-Oct-23 02:28N 54°37' W 005°54'0 0.0
2014-Oct-23 01:33N 54°37' W 005°54'2 2.0
2014-Oct-23 00:29N 54°39' W 005°52'8 8.1
2014-Oct-22 23:34N 54°43' W 005°40'5 5.3
2014-Oct-22 22:34N 54°43' W 005°31'9 9.2
2014-Oct-22 21:33N 54°35' W 005°25'1010.1
2014-Oct-22 20:33N 54°25' W 005°20'  
2014-Oct-20 09:31N 52°36' W 005°51'9 9.5
2014-Oct-20 08:32N 52°26' W 005°50'  
Track history (hours):
 
Tides and Currents Weather Stations Pressure Air Temp Water Temp Dewpoint Dewpoint Depression Visibility Wind Speed Wind Dir Waves Ship Positions

Chopin

Last reported at 2014-Oct-30 01:33 UTC. Time now 2014-Oct-31 14:12 UTC.
Position N 58°41' W 002°41'.

Length 104 m; draft 6 m.

Type: Cargo ship. MMSI: 236099000.

Date/timePositionNaut miles runAvg speedWind from/ knotsBaromVisibWave heightAir tempDewpointWater temp
2014-Oct-30 01:33N 58°41' W 002°41'1212.5
2014-Oct-30 00:33N 58°43' W 003°04'1212.4
2014-Oct-29 23:33N 58°42' W 003°28'1111.0
2014-Oct-29 22:33N 58°42' W 003°49'48 9.3
2014-Oct-29 17:23N 58°32' W 005°20'8 9.4
2014-Oct-29 16:33N 58°25' W 005°27'10 9.8
2014-Oct-29 15:33N 58°17' W 005°37'1010.0
2014-Oct-29 14:34N 58°08' W 005°47'142 8.7
2014-Oct-28 22:12N 55°49' W 006°34'5 7.3
2014-Oct-28 21:33N 55°45' W 006°34'5 5.2
2014-Oct-28 20:33N 55°39' W 006°34'8 7.8
2014-Oct-28 19:34N 55°33' W 006°25'10 9.7
2014-Oct-28 18:33N 55°26' W 006°13'1010.1
2014-Oct-28 17:33N 55°22' W 005°58'1312.6
2014-Oct-28 16:34N 55°10' W 005°48'1111.1
2014-Oct-28 15:32N 54°59' W 005°42'1010.4
2014-Oct-28 14:34N 54°49' W 005°39'9 9.0
2014-Oct-28 13:34N 54°41' W 005°46'6 5.2
2014-Oct-28 12:19N 54°37' W 005°54'0 0.0
2014-Oct-28 11:31N 54°37' W 005°54'0 0.0
2014-Oct-28 10:31N 54°37' W 005°54'0 0.0
2014-Oct-28 09:28N 54°37' W 005°54'0 0.0
2014-Oct-28 08:31N 54°37' W 005°54'0 0.0
2014-Oct-28 07:28N 54°37' W 005°54'0 0.0
2014-Oct-28 06:31N 54°37' W 005°54'0 0.0
2014-Oct-28 05:30N 54°37' W 005°54'0 0.0
2014-Oct-28 04:24N 54°37' W 005°54'0 0.0
2014-Oct-28 03:30N 54°37' W 005°54'0 0.0
2014-Oct-28 02:30N 54°37' W 005°54'0 0.0
2014-Oct-28 01:27N 54°37' W 005°54'0 0.0
2014-Oct-28 00:33N 54°37' W 005°54'0 0.0
2014-Oct-27 23:30N 54°37' W 005°54'0 0.0
2014-Oct-27 22:21N 54°37' W 005°54'0 0.0
2014-Oct-27 21:33N 54°37' W 005°54'0 0.0
2014-Oct-27 19:30N 54°37' W 005°54'0 0.0
2014-Oct-27 18:33N 54°37' W 005°54'0 0.0
2014-Oct-27 17:27N 54°37' W 005°54'0 0.0
2014-Oct-27 16:15N 54°37' W 005°54'0 0.0
2014-Oct-27 15:27N 54°37' W 005°54'0 0.0
2014-Oct-27 14:33N 54°37' W 005°54'0 0.0
2014-Oct-27 13:21N 54°37' W 005°54'0 0.0
2014-Oct-27 12:21N 54°37' W 005°54'0 0.0
2014-Oct-27 11:33N 54°37' W 005°54'0 0.0
2014-Oct-27 10:31N 54°37' W 005°54'0 0.0
2014-Oct-27 09:33N 54°37' W 005°54'3 3.1
2014-Oct-27 08:33N 54°39' W 005°51'9 8.9
2014-Oct-27 07:33N 54°43' W 005°37'6 6.2
2014-Oct-27 06:33N 54°40' W 005°27'7 7.1
2014-Oct-27 05:34N 54°33' W 005°24'8 7.5
2014-Oct-27 04:33N 54°26' W 005°20'7 7.1
2014-Oct-27 03:33N 54°19' W 005°20'192 6.9
2014-Oct-25 23:34N 51°22' W 003°14'1111.3
2014-Oct-25 22:34N 51°27' W 002°58'10 9.7
2014-Oct-25 21:31N 51°30' W 002°43'0 0.4
2014-Oct-25 20:31N 51°31' W 002°42'0 0.0
2014-Oct-25 19:31N 51°31' W 002°42'0 0.0
2014-Oct-25 18:31N 51°31' W 002°42'0 0.0
2014-Oct-25 17:34N 51°31' W 002°42'0 0.0
2014-Oct-25 16:33N 51°31' W 002°42'0 0.0
2014-Oct-25 15:33N 51°31' W 002°42'0 0.0
2014-Oct-25 14:33N 51°31' W 002°42'0 0.0
2014-Oct-25 13:33N 51°31' W 002°42'0 0.0
2014-Oct-25 12:33N 51°31' W 002°42'0 0.0
2014-Oct-25 11:33N 51°31' W 002°42'0 0.0
2014-Oct-25 10:30N 51°31' W 002°42'0 0.0
2014-Oct-25 09:33N 51°31' W 002°42'0 0.0
2014-Oct-25 08:33N 51°31' W 002°42'0 0.0
2014-Oct-25 07:30N 51°31' W 002°42'0 0.1
2014-Oct-25 06:33N 51°30' W 002°42'1 0.7
2014-Oct-25 05:33N 51°31' W 002°43'1211.9
2014-Oct-25 04:33N 51°26' W 003°01'1212.0
2014-Oct-25 03:34N 51°21' W 003°18'193 6.4
2014-Oct-23 21:34N 54°20' W 005°19'1010.0
2014-Oct-23 20:34N 54°30' W 005°21'1211.9
2014-Oct-23 19:34N 54°41' W 005°27'1010.1
2014-Oct-23 18:34N 54°42' W 005°45'7 1.7
2014-Oct-23 14:29N 54°37' W 005°54'0 0.0
2014-Oct-23 13:05N 54°37' W 005°54'0 0.0
2014-Oct-23 11:29N 54°37' W 005°54'0 0.0
2014-Oct-23 10:29N 54°37' W 005°54'0 0.0
2014-Oct-23 09:26N 54°37' W 005°54'0 0.0
2014-Oct-23 08:20N 54°37' W 005°54'0 0.0
2014-Oct-23 07:31N 54°37' W 005°54'0 0.0
2014-Oct-23 06:25N 54°37' W 005°54'0 0.0
2014-Oct-23 03:27N 54°37' W 005°54'0 0.0
2014-Oct-23 02:28N 54°37' W 005°54'0 0.0
2014-Oct-23 01:33N 54°37' W 005°54'2 2.0
2014-Oct-23 00:29N 54°39' W 005°52'8 8.1
2014-Oct-22 23:34N 54°43' W 005°40'5 5.3
2014-Oct-22 22:34N 54°43' W 005°31'9 9.2
2014-Oct-22 21:33N 54°35' W 005°25'1010.1
2014-Oct-22 20:33N 54°25' W 005°20'  
2014-Oct-20 09:31N 52°36' W 005°51'9 9.5
2014-Oct-20 08:32N 52°26' W 005°50'  

Dump ship's entire track history